createdAt,value
2018-07-30T00:02:44.310Z,19.40
2018-07-30T00:07:25.264Z,19.30
2018-07-30T00:12:06.721Z,19.30
2018-07-30T00:16:46.708Z,19.30
2018-07-30T00:21:28.454Z,19.30
2018-07-30T00:30:49.363Z,19.10
2018-07-30T00:35:31.347Z,19.00
2018-07-30T00:40:15.111Z,18.90
2018-07-30T00:44:56.312Z,18.90
2018-07-30T00:49:36.455Z,18.90
2018-07-30T00:54:16.385Z,18.90
2018-07-30T01:03:36.871Z,18.80
2018-07-30T01:08:18.024Z,18.70
2018-07-30T01:12:58.296Z,18.70
2018-07-30T01:17:39.180Z,18.70
2018-07-30T01:22:19.447Z,18.60
2018-07-30T01:26:59.688Z,18.50
2018-07-30T01:31:40.340Z,18.40
2018-07-30T01:36:21.207Z,18.30
2018-07-30T01:41:02.297Z,18.20
2018-07-30T01:45:42.270Z,18.20
2018-07-30T01:50:22.428Z,18.10
2018-07-30T01:59:42.451Z,18.30
2018-07-30T02:04:23.308Z,18.30
2018-07-30T02:09:03.944Z,18.30
2018-07-30T02:13:45.287Z,18.20
2018-07-30T02:18:26.392Z,18.10
2018-07-30T02:23:06.694Z,18.00
2018-07-30T02:27:47.176Z,17.90
2018-07-30T02:32:27.252Z,17.90
2018-07-30T02:37:08.483Z,18.00
2018-07-30T02:41:49.195Z,17.90
2018-07-30T02:46:29.988Z,17.90
2018-07-30T02:51:10.470Z,17.90
2018-07-30T02:55:51.632Z,17.90
2018-07-30T03:00:32.527Z,17.90
2018-07-30T03:05:12.615Z,17.90
2018-07-30T03:09:53.639Z,17.80
2018-07-30T03:14:34.651Z,17.70
2018-07-30T03:19:14.775Z,17.60
2018-07-30T03:23:55.747Z,17.50
2018-07-30T03:28:35.900Z,17.40
2018-07-30T03:33:17.764Z,17.40
2018-07-30T03:37:57.936Z,17.40
2018-07-30T03:42:38.090Z,17.30
2018-07-30T03:47:19.787Z,17.40
2018-07-30T03:52:01.273Z,17.40
2018-07-30T03:56:42.996Z,17.30
2018-07-30T04:01:23.189Z,17.30
2018-07-30T04:06:03.611Z,17.30
2018-07-30T04:10:44.449Z,17.30
2018-07-30T04:15:24.803Z,17.30
2018-07-30T04:20:05.488Z,17.30
2018-07-30T04:24:46.868Z,17.20
2018-07-30T04:29:27.707Z,17.20
2018-07-30T04:34:09.159Z,17.30
2018-07-30T04:38:50.009Z,17.40
2018-07-30T04:43:30.079Z,17.30
2018-07-30T04:48:11.201Z,17.40
2018-07-30T04:52:52.258Z,17.60
2018-07-30T04:57:33.532Z,17.60
2018-07-30T05:02:15.015Z,17.60
2018-07-30T05:06:55.072Z,17.70
2018-07-30T05:11:37.012Z,17.80
2018-07-30T05:16:17.759Z,18.00
2018-07-30T05:20:58.243Z,18.20
2018-07-30T05:25:39.514Z,18.30
2018-07-30T05:30:20.622Z,18.50
2018-07-30T05:35:00.900Z,18.50
2018-07-30T05:39:40.960Z,18.70
2018-07-30T05:44:21.696Z,18.90
2018-07-30T05:49:01.928Z,19.10
2018-07-30T05:53:42.193Z,19.40
2018-07-30T05:58:22.868Z,19.80
2018-07-30T06:03:04.762Z,20.10
2018-07-30T06:07:45.168Z,20.30
2018-07-30T06:12:26.552Z,20.40
2018-07-30T06:17:07.964Z,20.50
2018-07-30T06:21:49.763Z,20.80
2018-07-30T06:26:30.813Z,21.10
2018-07-30T06:31:11.531Z,21.30
2018-07-30T06:35:52.543Z,21.60
2018-07-30T06:40:32.851Z,22.00
2018-07-30T06:45:13.284Z,22.40
2018-07-30T06:49:55.096Z,22.70
2018-07-30T06:54:35.851Z,23.20
2018-07-30T07:03:58.063Z,24.10
2018-07-30T07:08:39.222Z,24.50
2018-07-30T07:13:20.315Z,25.00
2018-07-30T07:18:00.478Z,25.30
2018-07-30T07:22:41.966Z,25.60
2018-07-30T07:27:22.027Z,25.80
2018-07-30T07:32:03.166Z,26.20
2018-07-30T07:36:43.331Z,26.60
2018-07-30T07:41:24.887Z,26.90
2018-07-30T07:46:05.111Z,27.30
2018-07-30T07:50:45.396Z,27.70
2018-07-30T07:55:26.330Z,28.10
2018-07-30T08:00:08.676Z,28.60
2018-07-30T08:04:49.867Z,28.80
2018-07-30T08:09:30.221Z,28.80
2018-07-30T08:14:10.513Z,29.30
2018-07-30T08:18:51.673Z,29.80
2018-07-30T08:23:32.067Z,30.50
2018-07-30T08:28:13.182Z,31.50
2018-07-30T08:37:34.972Z,35.20
2018-07-30T08:42:15.169Z,36.30
2018-07-30T08:46:55.795Z,37.10
2018-07-30T08:51:36.396Z,37.40
2018-07-30T08:56:16.610Z,38.00
2018-07-30T09:00:57.659Z,39.00
2018-07-30T09:05:38.845Z,39.70
2018-07-30T09:10:18.804Z,38.90
2018-07-30T09:14:59.167Z,38.50
2018-07-30T09:19:39.558Z,38.90
2018-07-30T09:24:20.898Z,39.50
2018-07-30T09:29:01.660Z,40.10
2018-07-30T09:33:41.965Z,39.70
2018-07-30T09:38:21.964Z,39.30
2018-07-30T09:43:03.281Z,39.50
2018-07-30T09:47:43.738Z,40.70
2018-07-30T09:52:24.340Z,41.10
2018-07-30T09:57:04.900Z,41.50
2018-07-30T10:01:45.852Z,42.10
2018-07-30T10:11:07.143Z,42.30
2018-07-30T10:15:47.154Z,43.30
2018-07-30T10:20:27.648Z,42.70
2018-07-30T10:25:08.379Z,42.20
2018-07-30T10:29:49.465Z,42.60
2018-07-30T10:34:30.194Z,42.70
2018-07-30T10:39:10.400Z,43.00
2018-07-30T10:43:51.264Z,42.60
2018-07-30T10:48:31.452Z,42.00
2018-07-30T10:53:12.568Z,41.50
2018-07-30T10:57:53.412Z,40.90
2018-07-30T11:02:34.484Z,41.50
2018-07-30T11:07:16.216Z,41.90
2018-07-30T11:11:56.128Z,42.40
2018-07-30T11:16:36.816Z,43.00
2018-07-30T11:21:17.269Z,42.90
2018-07-30T11:25:58.703Z,43.20
2018-07-30T11:30:39.724Z,42.50
2018-07-30T11:35:20.172Z,41.50
2018-07-30T11:40:00.247Z,41.90
2018-07-30T11:44:40.463Z,41.90
2018-07-30T11:49:20.740Z,42.60
2018-07-30T11:54:00.896Z,43.10
2018-07-30T11:58:42.224Z,43.10
2018-07-30T12:03:22.512Z,42.90
2018-07-30T12:08:03.714Z,43.00
2018-07-30T12:12:43.976Z,41.80
2018-07-30T12:17:24.684Z,40.70
2018-07-30T12:22:04.895Z,40.30
2018-07-30T12:26:46.336Z,40.70
2018-07-30T12:31:27.832Z,41.60
2018-07-30T12:36:07.981Z,41.30
2018-07-30T12:40:48.971Z,40.10
2018-07-30T12:45:34.497Z,40.30
2018-07-30T12:50:14.833Z,40.80
2018-07-30T12:54:55.798Z,41.70
2018-07-30T12:59:36.227Z,42.40
2018-07-30T13:04:16.568Z,42.90
2018-07-30T13:08:57.935Z,43.40
2018-07-30T13:13:38.098Z,43.70
2018-07-30T13:18:18.599Z,44.10
2018-07-30T13:23:00.723Z,44.20
2018-07-30T13:27:41.788Z,43.70
2018-07-30T13:32:22.552Z,43.40
2018-07-30T13:37:03.428Z,43.10
2018-07-30T13:41:43.996Z,42.60
2018-07-30T13:46:24.554Z,41.50
2018-07-30T13:51:05.404Z,40.70
2018-07-30T13:55:45.497Z,40.00
2018-07-30T14:00:27.008Z,39.20
2018-07-30T14:05:07.744Z,38.30
2018-07-30T14:09:48.435Z,37.90
2018-07-30T14:14:28.612Z,37.50
2018-07-30T14:19:09.775Z,37.10
2018-07-30T14:23:50.599Z,36.90
2018-07-30T14:28:30.806Z,36.80
2018-07-30T14:33:11.188Z,36.90
2018-07-30T14:37:51.483Z,36.80
2018-07-30T14:42:31.810Z,36.70
2018-07-30T14:47:12.415Z,36.50
2018-07-30T14:51:53.002Z,36.30
2018-07-30T14:56:33.097Z,36.40
2018-07-30T15:01:13.468Z,36.90
2018-07-30T15:05:53.855Z,37.10
2018-07-30T15:10:33.964Z,36.80
2018-07-30T15:15:14.532Z,36.30
2018-07-30T15:19:55.144Z,36.40
2018-07-30T15:24:35.524Z,36.30
2018-07-30T15:29:15.711Z,36.30
2018-07-30T15:33:56.103Z,36.30
2018-07-30T15:38:36.276Z,36.20
2018-07-30T15:43:16.405Z,35.70
2018-07-30T15:47:56.475Z,35.50
2018-07-30T15:52:36.407Z,35.20
2018-07-30T15:57:16.673Z,35.20
2018-07-30T16:01:56.970Z,35.10
2018-07-30T16:06:39.471Z,35.00
2018-07-30T16:15:59.551Z,34.80
2018-07-30T16:20:40.227Z,34.90
2018-07-30T16:25:21.083Z,35.20
2018-07-30T16:30:01.528Z,35.70
2018-07-30T16:34:42.395Z,35.80
2018-07-30T16:39:22.951Z,35.60
2018-07-30T16:44:05.368Z,35.40
2018-07-30T16:48:46.674Z,35.30
2018-07-30T16:53:27.112Z,35.30
2018-07-30T16:58:07.796Z,34.90
2018-07-30T17:02:49.120Z,34.70
2018-07-30T17:07:29.885Z,34.40
2018-07-30T17:12:10.492Z,34.30
2018-07-30T17:16:51.784Z,34.20
2018-07-30T17:26:13.752Z,34.10
2018-07-30T17:30:55.907Z,34.10
2018-07-30T17:35:36.150Z,34.00
2018-07-30T17:40:17.115Z,33.90
2018-07-30T17:44:57.202Z,33.70
2018-07-30T17:49:37.447Z,33.60
2018-07-30T17:54:18.463Z,33.60
2018-07-30T17:58:58.583Z,33.50
2018-07-30T18:03:38.772Z,33.40
2018-07-30T18:08:18.919Z,33.20
2018-07-30T18:12:59.930Z,33.00
2018-07-30T18:17:40.056Z,32.80
2018-07-30T18:22:20.664Z,32.50
2018-07-30T18:27:01.189Z,32.20
2018-07-30T18:31:41.923Z,31.80
2018-07-30T18:36:22.780Z,31.50
2018-07-30T18:41:05.328Z,31.10
2018-07-30T18:45:47.080Z,30.70
2018-07-30T18:50:27.884Z,30.50
2018-07-30T18:55:08.247Z,30.30
2018-07-30T18:59:48.932Z,29.90
2018-07-30T19:09:11.152Z,29.30
2018-07-30T19:13:51.245Z,29.00
2018-07-30T19:18:32.253Z,28.80
2018-07-30T19:23:13.090Z,28.50
2018-07-30T19:27:53.285Z,28.30
2018-07-30T19:32:33.317Z,28.10
2018-07-30T19:37:13.626Z,27.80
2018-07-30T19:41:54.973Z,27.50
2018-07-30T19:46:35.700Z,27.30
2018-07-30T19:51:16.992Z,27.10
2018-07-30T19:55:58.656Z,26.90
2018-07-30T20:00:39.487Z,26.80
2018-07-30T20:05:19.943Z,26.60
2018-07-30T20:10:00.424Z,26.50
2018-07-30T20:14:40.496Z,26.30
2018-07-30T20:19:21.405Z,26.10
2018-07-30T20:24:04.164Z,25.90
2018-07-30T20:28:44.895Z,25.70
2018-07-30T20:33:25.364Z,25.60
2018-07-30T20:38:05.977Z,25.40
2018-07-30T20:42:46.319Z,25.20
2018-07-30T20:47:33.085Z,25.00
2018-07-30T20:52:14.839Z,24.90
2018-07-30T20:56:55.768Z,24.70
2018-07-30T21:01:36.832Z,24.60
2018-07-30T21:06:17.659Z,24.40
2018-07-30T21:10:58.498Z,24.20
2018-07-30T21:15:38.784Z,24.10
2018-07-30T21:20:20.940Z,24.10
2018-07-30T21:25:01.495Z,24.00
2018-07-30T21:29:43.403Z,23.90
2018-07-30T21:34:24.119Z,23.90
2018-07-30T21:39:06.171Z,23.70
2018-07-30T21:43:46.371Z,23.60
2018-07-30T21:48:27.196Z,23.50
2018-07-30T21:53:08.071Z,23.50
2018-07-30T21:57:48.311Z,23.50
2018-07-30T22:02:28.605Z,23.40
2018-07-30T22:07:09.404Z,23.20
2018-07-30T22:11:49.731Z,23.10
2018-07-30T22:16:30.670Z,23.00
2018-07-30T22:21:11.528Z,22.90
2018-07-30T22:30:33.713Z,22.70
2018-07-30T22:35:14.221Z,22.50
2018-07-30T22:39:55.688Z,22.40
2018-07-30T22:44:37.308Z,22.40
2018-07-30T22:49:17.992Z,22.40
2018-07-30T22:53:58.060Z,22.20
2018-07-30T22:58:38.091Z,22.10
2018-07-30T23:03:18.395Z,22.00
2018-07-30T23:08:00.012Z,21.90
2018-07-30T23:12:40.209Z,21.90
2018-07-30T23:17:21.331Z,21.80
2018-07-30T23:22:01.299Z,21.80
2018-07-30T23:26:41.529Z,21.70
2018-07-30T23:31:21.970Z,21.60
2018-07-30T23:36:03.647Z,21.50
2018-07-30T23:40:44.244Z,21.40
2018-07-30T23:45:24.909Z,21.30
2018-07-30T23:50:07.264Z,21.10
2018-07-30T23:54:47.737Z,21.00
2018-07-30T23:59:28.075Z,20.90
